createdAt,value
2023-05-25T00:00:32.831Z,101831.09
2023-05-25T00:05:34.902Z,101829.28
2023-05-25T00:10:36.932Z,101829.28
2023-05-25T00:15:38.976Z,101831.03
2023-05-25T00:20:41.297Z,101830.25
2023-05-25T00:25:43.632Z,101826.72
2023-05-25T00:30:46.023Z,101820.41
2023-05-25T00:35:48.277Z,101814.25
2023-05-25T00:40:56.593Z,101828.50
2023-05-25T00:45:58.812Z,101829.53
2023-05-25T00:51:01.059Z,101832.22
2023-05-25T00:56:20.570Z,101829.53
2023-05-25T01:01:23.402Z,101828.59
2023-05-25T01:06:30.546Z,101836.63
2023-05-25T01:11:35.537Z,101829.38
2023-05-25T01:16:38.356Z,101833.16
2023-05-25T01:21:42.539Z,101839.22
2023-05-25T01:26:54.806Z,101842.84
2023-05-25T01:31:58.914Z,101841.03
2023-05-25T01:37:01.410Z,101835.84
2023-05-25T01:42:03.454Z,101845.66
2023-05-25T01:47:20.912Z,101842.22
2023-05-25T01:52:27.262Z,101843.09
2023-05-25T01:57:30.194Z,101847.41
2023-05-25T02:02:33.519Z,101844.91
2023-05-25T02:07:36.624Z,101846.44
2023-05-25T02:12:38.742Z,101843.94
2023-05-25T02:17:40.758Z,101845.75
2023-05-25T02:22:42.803Z,101845.91
2023-05-25T02:27:45.606Z,101841.25
2023-05-25T02:32:47.797Z,101845.91
2023-05-25T02:37:51.244Z,101847.66
2023-05-25T02:42:53.510Z,101859.22
2023-05-25T02:47:56.097Z,101855.69
2023-05-25T02:52:58.171Z,101863.81
2023-05-25T02:58:01.256Z,101870.94
2023-05-25T03:03:03.338Z,101875.34
2023-05-25T03:08:05.384Z,101874.53
2023-05-25T03:13:07.430Z,101877.28
2023-05-25T03:18:09.376Z,101878.16
2023-05-25T03:23:11.604Z,101888.84
2023-05-25T03:28:13.609Z,101883.56
2023-05-25T03:33:15.663Z,101888.00
2023-05-25T03:38:17.692Z,101896.94
2023-05-25T03:43:19.821Z,101897.91
2023-05-25T03:48:21.811Z,101900.41
2023-05-25T03:53:23.837Z,101908.50
2023-05-25T03:58:26.047Z,101910.41
2023-05-25T04:03:28.306Z,101904.97
2023-05-25T04:08:30.401Z,101902.38
2023-05-25T04:13:36.140Z,101914.97
2023-05-25T04:18:38.461Z,101922.91
2023-05-25T04:23:41.330Z,101930.09
2023-05-25T04:28:43.324Z,101933.69
2023-05-25T04:33:46.489Z,101931.03
2023-05-25T04:38:49.161Z,101936.47
2023-05-25T04:44:06.551Z,101933.56
2023-05-25T04:49:13.730Z,101940.78
2023-05-25T04:54:16.251Z,101941.81
2023-05-25T04:59:18.356Z,101952.53
2023-05-25T05:04:20.899Z,101962.34
2023-05-25T05:09:23.224Z,101957.94
2023-05-25T05:14:25.556Z,101964.31
2023-05-25T05:19:27.472Z,101970.69
2023-05-25T05:24:30.371Z,101967.78
2023-05-25T05:29:32.261Z,101980.38
2023-05-25T05:34:34.616Z,101983.97
2023-05-25T05:39:37.756Z,101992.72
2023-05-25T05:44:39.863Z,101993.53
2023-05-25T05:49:42.144Z,101993.75
2023-05-25T05:54:44.482Z,101999.91
2023-05-25T05:59:46.588Z,101999.97
2023-05-25T06:04:48.494Z,102000.75
2023-05-25T06:09:50.707Z,102010.59
2023-05-25T06:14:53.439Z,102008.06
2023-05-25T06:19:55.946Z,102011.81
2023-05-25T06:24:58.019Z,102019.78
2023-05-25T06:30:00.034Z,102018.69
2023-05-25T06:35:02.678Z,102018.69
2023-05-25T06:40:05.878Z,102020.50
2023-05-25T06:45:08.703Z,102012.38
2023-05-25T06:50:11.099Z,102024.03
2023-05-25T06:55:13.825Z,102019.47
2023-05-25T07:00:16.765Z,102027.06
2023-05-25T07:05:18.968Z,102031.50
2023-05-25T07:10:25.495Z,102046.88
2023-05-25T07:15:27.484Z,102041.31
2023-05-25T07:20:30.783Z,102044.44
2023-05-25T07:25:32.888Z,102038.09
2023-05-25T07:30:35.006Z,102039.81
2023-05-25T07:35:37.144Z,102050.53
2023-05-25T07:40:39.214Z,102048.34
2023-05-25T07:45:41.640Z,102060.69
2023-05-25T07:50:43.702Z,102054.56
2023-05-25T07:55:46.207Z,102052.41
2023-05-25T08:00:50.187Z,102059.72
2023-05-25T08:05:52.336Z,102065.56
2023-05-25T08:10:54.346Z,102061.75
2023-05-25T08:15:56.317Z,102063.13
2023-05-25T08:20:58.688Z,102062.81
2023-05-25T08:26:01.348Z,102067.59
2023-05-25T08:31:04.540Z,102068.03
2023-05-25T08:36:07.109Z,102070.41
2023-05-25T08:41:09.307Z,102063.06
2023-05-25T08:46:12.024Z,102064.34
2023-05-25T08:51:16.042Z,102061.75
2023-05-25T08:56:20.706Z,102066.53
2023-05-25T09:01:26.641Z,102062.25
2023-05-25T09:06:29.345Z,102058.13
2023-05-25T09:11:39.343Z,102064.44
2023-05-25T09:16:43.112Z,102056.41
2023-05-25T09:21:45.431Z,102061.59
2023-05-25T09:26:49.906Z,102060.00
2023-05-25T09:31:52.503Z,102074.59
2023-05-25T09:36:55.633Z,102058.13
2023-05-25T09:41:58.282Z,102060.34
2023-05-25T09:47:00.425Z,102066.06
2023-05-25T09:52:02.878Z,102067.66
2023-05-25T09:57:05.907Z,102074.72
2023-05-25T10:02:08.183Z,102069.69
2023-05-25T10:07:10.431Z,102080.81
2023-05-25T10:12:16.485Z,102077.41
2023-05-25T10:17:23.813Z,102067.66
2023-05-25T10:23:05.390Z,102074.25
2023-05-25T10:28:27.568Z,102073.28
2023-05-25T10:38:34.010Z,102082.91
2023-05-25T10:43:36.560Z,102080.28
2023-05-25T10:48:52.337Z,102070.63
2023-05-25T10:54:02.437Z,102079.59
2023-05-25T10:59:04.660Z,102076.59
2023-05-25T11:04:07.145Z,102076.25
2023-05-25T11:09:24.630Z,102078.69
2023-05-25T11:14:38.816Z,102062.38
2023-05-25T11:19:48.759Z,102066.59
2023-05-25T11:24:53.966Z,102078.09
2023-05-25T11:29:59.786Z,102066.22
2023-05-25T11:35:02.054Z,102069.78
2023-05-25T11:40:07.494Z,102068.13
2023-05-25T11:45:14.920Z,102060.88
2023-05-25T11:50:17.650Z,102069.84
2023-05-25T11:55:19.890Z,102062.44
2023-05-25T12:00:26.809Z,102062.66
2023-05-25T12:05:38.170Z,102056.63
2023-05-25T12:10:51.496Z,102052.34
2023-05-25T12:15:57.987Z,102052.97
2023-05-25T12:21:00.385Z,102054.72
2023-05-25T12:26:16.887Z,102049.38
2023-05-25T12:31:27.274Z,102049.38
2023-05-25T12:36:50.351Z,102046.84
2023-05-25T12:41:55.116Z,102045.81
2023-05-25T12:47:10.200Z,102035.91
2023-05-25T12:52:31.473Z,102051.09
2023-05-25T12:57:36.672Z,102042.94
2023-05-25T13:02:38.802Z,102037.78
2023-05-25T13:07:41.056Z,102047.63
2023-05-25T13:12:45.073Z,102034.25
2023-05-25T13:17:47.787Z,102035.75
2023-05-25T13:22:51.935Z,102033.31
2023-05-25T13:27:55.224Z,102025.41
2023-05-25T13:32:57.573Z,102034.09
2023-05-25T13:37:59.991Z,102032.66
2023-05-25T13:43:02.084Z,102030.84
2023-05-25T13:48:05.335Z,102035.41
2023-05-25T13:53:08.057Z,102027.31
2023-05-25T13:58:10.537Z,102020.06
2023-05-25T14:03:13.179Z,102027.22
2023-05-25T14:08:15.949Z,102032.31
2023-05-25T14:13:18.178Z,102026.97
2023-05-25T14:18:20.393Z,102026.56
2023-05-25T14:23:22.934Z,102033.75
2023-05-25T14:28:24.959Z,102031.78
2023-05-25T14:33:26.949Z,102022.75
2023-05-25T14:38:30.930Z,102028.88
2023-05-25T14:43:33.647Z,102027.00
2023-05-25T14:48:36.688Z,102019.75
2023-05-25T14:53:38.939Z,102020.78
2023-05-25T14:58:40.903Z,102024.41
2023-05-25T15:03:43.055Z,102022.38
2023-05-25T15:08:45.153Z,102008.88
2023-05-25T15:13:47.296Z,102002.69
2023-05-25T15:18:49.386Z,102001.09
2023-05-25T15:23:51.934Z,101995.66
2023-05-25T15:28:54.007Z,102004.50
2023-05-25T15:33:58.974Z,101998.03
2023-05-25T15:39:01.942Z,101993.00
2023-05-25T15:44:08.461Z,101996.94
2023-05-25T15:49:13.577Z,101997.44
2023-05-25T15:54:15.821Z,101992.38
2023-05-25T15:59:18.029Z,101985.91
2023-05-25T16:04:20.569Z,101990.38
2023-05-25T16:09:22.772Z,101981.50
2023-05-25T16:14:26.909Z,101992.50
2023-05-25T16:19:28.978Z,101993.53
2023-05-25T16:24:31.023Z,101995.03
2023-05-25T16:29:33.266Z,101988.16
2023-05-25T16:34:35.437Z,101995.09
2023-05-25T16:39:37.619Z,101988.59
2023-05-25T16:44:39.543Z,101992.09
2023-05-25T16:49:41.432Z,101988.06
2023-05-25T16:54:43.659Z,101979.47
2023-05-25T16:59:46.121Z,101990.63
2023-05-25T17:04:48.476Z,101976.16
2023-05-25T17:09:50.429Z,101975.16
2023-05-25T17:14:52.494Z,101973.41
2023-05-25T17:19:54.593Z,101969.69
2023-05-25T17:24:56.706Z,101974.38
2023-05-25T17:29:59.150Z,101969.63
2023-05-25T17:35:01.142Z,101971.50
2023-05-25T17:40:03.908Z,101976.88
2023-05-25T17:45:10.932Z,101973.41
2023-05-25T17:50:13.061Z,101969.94
2023-05-25T17:55:15.113Z,101972.31
2023-05-25T18:00:23.151Z,101982.41
2023-05-25T18:05:25.308Z,101973.56
2023-05-25T18:10:27.652Z,101975.34
2023-05-25T18:15:29.778Z,101971.88
2023-05-25T18:20:35.106Z,101966.63
2023-05-25T18:25:37.180Z,101975.59
2023-05-25T18:30:39.376Z,101983.63
2023-05-25T18:35:41.492Z,101981.13
2023-05-25T18:40:43.588Z,101974.97
2023-05-25T18:45:47.455Z,101988.25
2023-05-25T18:50:50.108Z,101984.50
2023-05-25T18:55:52.550Z,101984.97
2023-05-25T19:00:54.519Z,101988.34
2023-05-25T19:05:56.586Z,101988.50
2023-05-25T19:10:58.661Z,101994.88
2023-05-25T19:16:01.647Z,101998.34
2023-05-25T19:21:04.330Z,101997.41
2023-05-25T19:26:06.710Z,101996.63
2023-05-25T19:31:09.272Z,101996.53
2023-05-25T19:36:11.446Z,102000.09
2023-05-25T19:41:13.554Z,102011.66
2023-05-25T19:46:15.932Z,102007.34
2023-05-25T19:51:18.359Z,102008.88
2023-05-25T19:56:21.802Z,102015.28
2023-05-25T20:01:23.886Z,102021.50
2023-05-25T20:06:26.088Z,102028.59
2023-05-25T20:11:28.750Z,102021.50
2023-05-25T20:16:31.025Z,102027.78
2023-05-25T20:21:33.246Z,102039.28
2023-05-25T20:26:35.210Z,102032.34
2023-05-25T20:31:37.497Z,102034.00
2023-05-25T20:36:39.663Z,102034.97
2023-05-25T20:41:42.108Z,102036.13
2023-05-25T20:46:44.421Z,102042.28
2023-05-25T20:51:50.281Z,102039.53
2023-05-25T20:56:52.402Z,102039.47
2023-05-25T21:01:54.347Z,102046.84
2023-05-25T21:06:56.585Z,102052.13
2023-05-25T21:11:59.253Z,102051.38
2023-05-25T21:17:01.576Z,102054.78
2023-05-25T21:22:03.690Z,102054.06
2023-05-25T21:27:05.937Z,102057.47
2023-05-25T21:32:08.199Z,102061.31
2023-05-25T21:37:10.142Z,102055.81
2023-05-25T21:42:12.099Z,102056.81
2023-05-25T21:47:14.159Z,102069.22
2023-05-25T21:52:16.456Z,102067.38
2023-05-25T21:57:18.326Z,102073.66
2023-05-25T22:02:20.693Z,102078.16
2023-05-25T22:07:22.787Z,102073.75
2023-05-25T22:12:24.638Z,102073.81
2023-05-25T22:17:26.648Z,102067.63
2023-05-25T22:22:28.653Z,102072.88
2023-05-25T22:27:30.709Z,102084.38
2023-05-25T22:32:32.631Z,102095.06
2023-05-25T22:37:34.589Z,102100.66
2023-05-25T22:42:36.532Z,102106.06
2023-05-25T22:47:38.672Z,102114.84
2023-05-25T22:52:41.879Z,102108.63
2023-05-25T22:57:44.004Z,102117.50
2023-05-25T23:02:46.149Z,102111.31
2023-05-25T23:07:48.242Z,102108.69
2023-05-25T23:12:51.666Z,102114.09
2023-05-25T23:17:53.600Z,102109.66
2023-05-25T23:22:55.794Z,102114.09
2023-05-25T23:27:58.132Z,102104.41
2023-05-25T23:33:01.150Z,102095.47
2023-05-25T23:38:03.463Z,102108.84
2023-05-25T23:43:05.603Z,102107.84
2023-05-25T23:48:07.869Z,102109.78
2023-05-25T23:53:10.078Z,102109.78
2023-05-25T23:58:12.311Z,102108.84
